createdAt,value
2024-02-26T00:00:10.344Z,88.33
2024-02-26T00:00:42.401Z,86.00
2024-02-26T00:01:14.525Z,85.00
2024-02-26T00:01:46.399Z,84.00
2024-02-26T00:02:19.061Z,84.00
2024-02-26T00:02:50.977Z,84.00
2024-02-26T00:03:22.947Z,84.00
2024-02-26T00:03:56.273Z,84.00
2024-02-26T00:04:28.204Z,84.00
2024-02-26T00:05:00.115Z,84.00
2024-02-26T00:05:32.873Z,84.33
2024-02-26T00:06:05.066Z,85.00
2024-02-26T00:06:37.937Z,85.33
2024-02-26T00:07:10.392Z,86.33
2024-02-26T00:07:42.493Z,90.33
2024-02-26T00:08:14.302Z,91.00
2024-02-26T00:08:46.504Z,91.00
2024-02-26T00:09:18.364Z,91.00
2024-02-26T00:09:50.204Z,90.67
2024-02-26T00:10:22.116Z,90.00
2024-02-26T00:10:53.943Z,90.00
2024-02-26T00:11:25.782Z,90.00
2024-02-26T00:11:57.703Z,89.67
2024-02-26T00:12:29.577Z,89.00
2024-02-26T00:13:01.463Z,89.00
2024-02-26T00:13:33.369Z,89.00
2024-02-26T00:14:05.501Z,88.00
2024-02-26T00:14:37.392Z,88.00
2024-02-26T00:15:10.175Z,88.00
2024-02-26T00:15:42.096Z,88.00
2024-02-26T00:16:13.973Z,88.00
2024-02-26T00:16:46.525Z,88.00
2024-02-26T00:17:18.372Z,88.00
2024-02-26T00:17:50.308Z,88.00
2024-02-26T00:18:22.461Z,88.33
2024-02-26T00:18:54.524Z,89.00
2024-02-26T00:19:26.553Z,89.00
2024-02-26T00:19:58.493Z,89.00
2024-02-26T00:20:30.362Z,91.00
2024-02-26T00:21:03.133Z,98.33
2024-02-26T00:21:35.018Z,104.00
2024-02-26T00:22:06.828Z,114.67
2024-02-26T00:22:38.732Z,126.33
2024-02-26T00:23:10.560Z,121.67
2024-02-26T00:23:42.423Z,123.33
2024-02-26T00:24:14.395Z,122.33
2024-02-26T00:24:46.290Z,117.00
2024-02-26T00:25:18.224Z,113.67
2024-02-26T00:25:50.066Z,112.33
2024-02-26T00:26:21.931Z,111.33
2024-02-26T00:26:55.877Z,110.67
2024-02-26T00:27:27.973Z,109.33
2024-02-26T00:27:59.818Z,109.00
2024-02-26T00:28:32.557Z,108.00
2024-02-26T00:29:04.713Z,107.00
2024-02-26T00:29:36.601Z,106.33
2024-02-26T00:30:08.916Z,105.67
2024-02-26T00:30:40.878Z,105.00
2024-02-26T00:31:12.823Z,104.00
2024-02-26T00:31:44.742Z,103.00
2024-02-26T00:32:16.665Z,103.00
2024-02-26T00:32:48.694Z,103.67
2024-02-26T00:33:20.854Z,106.67
2024-02-26T00:33:52.869Z,120.67
2024-02-26T00:34:25.599Z,132.33
2024-02-26T00:34:57.569Z,129.33
2024-02-26T00:35:29.651Z,130.67
2024-02-26T00:36:01.559Z,129.67
2024-02-26T00:36:33.408Z,123.67
2024-02-26T00:37:05.393Z,121.67
2024-02-26T00:37:37.259Z,117.33
2024-02-26T00:38:09.199Z,114.33
2024-02-26T00:38:41.654Z,113.00
2024-02-26T00:39:13.587Z,116.00
2024-02-26T00:39:46.254Z,121.33
2024-02-26T00:40:18.216Z,122.00
2024-02-26T00:40:50.090Z,120.67
2024-02-26T00:41:22.023Z,120.00
2024-02-26T00:41:53.902Z,120.00
2024-02-26T00:42:25.850Z,119.33
2024-02-26T00:42:57.813Z,118.33
2024-02-26T00:43:29.652Z,118.00
2024-02-26T00:44:01.604Z,115.67
2024-02-26T00:44:33.554Z,110.33
2024-02-26T00:45:05.845Z,105.67
2024-02-26T00:45:37.782Z,99.33
2024-02-26T00:46:09.640Z,94.33
2024-02-26T00:46:41.493Z,92.00
2024-02-26T00:47:13.434Z,92.67
2024-02-26T00:47:46.674Z,92.67
2024-02-26T00:48:19.011Z,93.33
2024-02-26T00:48:51.114Z,95.00
2024-02-26T00:49:23.114Z,95.00
2024-02-26T00:49:55.107Z,94.00
2024-02-26T00:50:27.056Z,94.00
2024-02-26T00:50:58.973Z,93.33
2024-02-26T00:51:30.936Z,91.67
2024-02-26T00:52:02.765Z,90.33
2024-02-26T00:52:34.696Z,90.00
2024-02-26T00:53:06.573Z,90.00
2024-02-26T00:53:38.483Z,89.67
2024-02-26T00:54:10.337Z,87.00
2024-02-26T00:54:42.201Z,84.33
2024-02-26T00:55:14.128Z,83.33
2024-02-26T00:55:46.012Z,81.67
2024-02-26T00:56:17.853Z,81.00
2024-02-26T00:56:49.775Z,81.67
2024-02-26T00:57:21.973Z,82.33
2024-02-26T00:57:54.276Z,83.00
2024-02-26T00:58:27.080Z,83.00
2024-02-26T00:58:59.675Z,83.00
2024-02-26T00:59:31.548Z,83.00
2024-02-26T01:00:03.573Z,83.00
2024-02-26T01:00:35.456Z,83.33
2024-02-26T01:01:07.458Z,84.00
2024-02-26T01:01:39.368Z,84.33
2024-02-26T01:02:11.223Z,86.00
2024-02-26T01:02:43.245Z,87.33
2024-02-26T01:03:15.290Z,88.00
2024-02-26T01:03:47.511Z,88.00
2024-02-26T01:04:19.516Z,88.00
2024-02-26T01:04:51.414Z,88.00
2024-02-26T01:05:23.347Z,88.00
2024-02-26T01:05:58.832Z,88.00
2024-02-26T01:06:31.325Z,88.00
2024-02-26T01:07:04.327Z,88.00
2024-02-26T01:07:37.442Z,88.00
2024-02-26T01:08:09.821Z,88.00
2024-02-26T01:08:41.784Z,89.33
2024-02-26T01:09:13.803Z,90.00
2024-02-26T01:09:45.727Z,91.00
2024-02-26T01:10:17.589Z,91.00
2024-02-26T01:10:49.452Z,91.33
2024-02-26T01:11:21.359Z,93.33
2024-02-26T01:11:53.327Z,98.67
2024-02-26T01:12:25.282Z,102.67
2024-02-26T01:12:57.157Z,103.33
2024-02-26T01:13:28.982Z,102.67
2024-02-26T01:14:00.879Z,102.00
2024-02-26T01:14:32.816Z,102.00
2024-02-26T01:15:05.291Z,101.00
2024-02-26T01:15:37.541Z,101.00
2024-02-26T01:16:09.470Z,100.33
2024-02-26T01:16:41.361Z,100.00
2024-02-26T01:17:13.193Z,100.00
2024-02-26T01:17:45.080Z,100.00
2024-02-26T01:18:17.087Z,100.00
2024-02-26T01:18:49.186Z,99.00
2024-02-26T01:19:22.091Z,99.00
2024-02-26T01:19:55.044Z,98.33
2024-02-26T01:20:26.967Z,99.00
2024-02-26T01:20:58.872Z,98.33
2024-02-26T01:21:31.218Z,98.00
2024-02-26T01:22:03.757Z,96.67
2024-02-26T01:22:35.743Z,94.67
2024-02-26T01:23:07.610Z,92.33
2024-02-26T01:23:39.485Z,90.67
2024-02-26T01:24:11.875Z,90.00
2024-02-26T01:24:43.813Z,90.00
2024-02-26T01:25:16.935Z,90.00
2024-02-26T01:25:49.588Z,90.00
2024-02-26T01:26:22.972Z,90.00
2024-02-26T01:26:54.859Z,90.00
2024-02-26T01:27:28.429Z,89.33
2024-02-26T01:28:00.358Z,89.00
2024-02-26T01:28:32.189Z,88.00
2024-02-26T01:29:04.038Z,88.00
2024-02-26T01:29:36.059Z,88.00
2024-02-26T01:30:08.463Z,88.00
2024-02-26T01:30:40.408Z,88.00
2024-02-26T01:31:12.332Z,88.00
2024-02-26T01:31:44.165Z,88.00
2024-02-26T01:32:16.017Z,88.00
2024-02-26T01:32:48.194Z,88.00
2024-02-26T01:33:20.252Z,87.00
2024-02-26T01:33:52.247Z,87.00
2024-02-26T01:34:24.250Z,86.33
2024-02-26T01:34:56.205Z,85.33
2024-02-26T01:35:28.053Z,84.33
2024-02-26T01:35:59.943Z,84.00
2024-02-26T01:36:31.869Z,84.00
2024-02-26T01:37:03.933Z,84.33
2024-02-26T01:37:35.841Z,85.00
2024-02-26T01:38:07.683Z,85.67
2024-02-26T01:38:39.497Z,86.33
2024-02-26T01:39:13.719Z,87.00
2024-02-26T01:39:45.645Z,87.00
2024-02-26T01:40:20.793Z,87.33
2024-02-26T01:40:52.760Z,88.00
2024-02-26T01:41:24.587Z,88.00
2024-02-26T01:41:56.516Z,87.00
2024-02-26T01:42:28.415Z,87.00
2024-02-26T01:43:00.814Z,87.00
2024-02-26T01:43:33.096Z,86.33
2024-02-26T01:44:05.025Z,85.67
2024-02-26T01:44:36.903Z,84.67
2024-02-26T01:45:17.251Z,84.00
2024-02-26T01:45:49.381Z,84.67
2024-02-26T01:46:22.235Z,86.33
2024-02-26T01:46:54.430Z,90.00
2024-02-26T01:47:28.219Z,92.33
2024-02-26T01:48:00.320Z,92.00
2024-02-26T01:48:32.559Z,93.00
2024-02-26T01:49:05.029Z,103.33
2024-02-26T01:49:37.823Z,115.67
2024-02-26T01:50:10.084Z,118.67
2024-02-26T01:50:42.528Z,122.33
2024-02-26T01:51:15.966Z,122.67
2024-02-26T01:51:47.807Z,113.33
2024-02-26T01:52:19.942Z,110.33
2024-02-26T01:52:52.353Z,106.00
2024-02-26T01:53:25.625Z,99.00
2024-02-26T01:53:58.069Z,93.00
2024-02-26T01:54:31.083Z,89.67
2024-02-26T01:55:03.659Z,89.33
2024-02-26T01:55:35.752Z,90.33
2024-02-26T01:56:08.409Z,93.00
2024-02-26T01:56:41.666Z,96.00
2024-02-26T01:57:14.688Z,96.00
2024-02-26T01:57:47.584Z,95.67
2024-02-26T01:58:19.865Z,95.00
2024-02-26T01:58:51.804Z,94.00
2024-02-26T01:59:23.875Z,94.00
2024-02-26T01:59:56.974Z,94.00
2024-02-26T02:00:29.141Z,94.00
2024-02-26T02:01:02.393Z,94.00
2024-02-26T02:01:35.122Z,92.67
2024-02-26T02:02:10.118Z,90.00
2024-02-26T02:02:43.195Z,86.67
2024-02-26T02:03:15.157Z,82.67
2024-02-26T02:03:47.292Z,79.67
2024-02-26T02:04:19.505Z,79.00
2024-02-26T02:04:51.493Z,79.00
2024-02-26T02:05:24.477Z,76.00
2024-02-26T02:05:56.456Z,74.00
2024-02-26T02:06:31.397Z,72.67
2024-02-26T02:07:03.998Z,70.33
2024-02-26T02:07:37.106Z,70.67
2024-02-26T02:08:11.881Z,71.00
2024-02-26T02:08:44.155Z,69.67
2024-02-26T02:09:16.667Z,69.33
2024-02-26T02:09:48.553Z,70.00
2024-02-26T02:10:24.099Z,68.33
2024-02-26T02:10:56.230Z,68.00
2024-02-26T02:11:28.465Z,68.33
2024-02-26T02:12:00.911Z,69.00
2024-02-26T02:12:34.203Z,70.00
2024-02-26T02:13:06.058Z,70.00
2024-02-26T02:13:37.858Z,70.33
2024-02-26T02:14:09.683Z,71.00
2024-02-26T02:14:41.602Z,71.00
2024-02-26T02:15:13.463Z,72.00
2024-02-26T02:15:45.349Z,72.00
2024-02-26T02:16:17.265Z,70.67
2024-02-26T02:16:49.394Z,65.33
2024-02-26T02:17:21.751Z,66.33
2024-02-26T02:17:53.704Z,67.00
2024-02-26T02:18:25.659Z,68.00
2024-02-26T02:18:57.620Z,67.00
2024-02-26T02:19:29.580Z,67.00
2024-02-26T02:20:01.663Z,67.00
2024-02-26T02:20:37.150Z,67.00
2024-02-26T02:21:09.102Z,67.33
2024-02-26T02:21:41.051Z,67.33
2024-02-26T02:22:12.965Z,66.00
2024-02-26T02:22:46.244Z,65.00
2024-02-26T02:23:18.095Z,65.67
2024-02-26T02:23:50.410Z,66.00
2024-02-26T02:24:22.471Z,66.00
2024-02-26T02:24:54.628Z,69.67
2024-02-26T02:25:26.619Z,75.00
2024-02-26T02:25:59.746Z,78.00
2024-02-26T02:26:31.819Z,86.67
2024-02-26T02:27:04.143Z,95.33
2024-02-26T02:27:36.156Z,97.67
2024-02-26T02:28:08.084Z,100.00
2024-02-26T02:28:41.156Z,95.33
2024-02-26T02:29:13.558Z,94.00
2024-02-26T02:29:45.528Z,96.67
2024-02-26T02:30:17.825Z,95.33
2024-02-26T02:30:50.007Z,93.33
2024-02-26T02:31:21.925Z,90.67
2024-02-26T02:31:53.771Z,85.33
2024-02-26T02:32:26.814Z,82.00
2024-02-26T02:33:02.659Z,80.33
2024-02-26T02:33:35.919Z,80.00
2024-02-26T02:34:07.917Z,79.67
2024-02-26T02:34:40.369Z,76.00
2024-02-26T02:35:12.219Z,71.00
2024-02-26T02:35:44.076Z,67.00
2024-02-26T02:36:16.060Z,64.00
2024-02-26T02:36:53.542Z,63.00
2024-02-26T02:37:25.366Z,60.33
2024-02-26T02:37:58.580Z,57.00
2024-02-26T02:38:31.459Z,56.00
2024-02-26T02:39:04.598Z,55.67
2024-02-26T02:39:36.487Z,56.00
2024-02-26T02:40:08.800Z,56.67
2024-02-26T02:40:40.616Z,56.00
2024-02-26T02:41:12.464Z,56.00
2024-02-26T02:41:44.377Z,55.33
2024-02-26T02:42:16.924Z,55.00
2024-02-26T02:42:48.849Z,54.33
2024-02-26T02:43:20.776Z,54.00
2024-02-26T02:43:52.651Z,55.00
2024-02-26T02:44:24.504Z,55.00
2024-02-26T02:44:56.370Z,54.67
2024-02-26T02:45:28.222Z,54.00
2024-02-26T02:46:00.045Z,53.00
2024-02-26T02:46:34.665Z,52.33
2024-02-26T02:47:06.515Z,52.00
2024-02-26T02:47:38.987Z,53.00
2024-02-26T02:48:12.634Z,53.00
2024-02-26T02:48:44.998Z,52.00
2024-02-26T02:49:18.018Z,52.00
2024-02-26T02:49:50.061Z,52.00
2024-02-26T02:50:21.917Z,52.67
2024-02-26T02:50:53.762Z,53.00
2024-02-26T02:51:25.799Z,53.00
2024-02-26T02:51:58.664Z,53.33
2024-02-26T02:52:30.616Z,54.00
2024-02-26T02:53:03.159Z,54.00
2024-02-26T02:53:34.974Z,54.00
2024-02-26T02:54:06.833Z,54.00
2024-02-26T02:54:41.531Z,54.00
2024-02-26T02:55:13.770Z,54.33
2024-02-26T02:55:45.642Z,55.33
2024-02-26T02:56:17.458Z,56.00
2024-02-26T02:56:49.324Z,56.67
2024-02-26T02:57:21.302Z,58.00
2024-02-26T02:57:53.192Z,60.67
2024-02-26T02:58:25.102Z,61.00
2024-02-26T02:58:57.011Z,61.00
2024-02-26T02:59:28.865Z,61.00
2024-02-26T03:00:00.867Z,60.67
2024-02-26T03:00:32.842Z,59.33
2024-02-26T03:01:04.818Z,58.67
2024-02-26T03:01:36.728Z,57.67
2024-02-26T03:02:08.609Z,56.67
2024-02-26T03:02:40.514Z,55.33
2024-02-26T03:03:12.812Z,53.67
2024-02-26T03:03:44.700Z,52.67
2024-02-26T03:04:16.671Z,52.00
2024-02-26T03:04:48.701Z,53.33
2024-02-26T03:05:20.616Z,54.33
2024-02-26T03:05:52.510Z,55.00
2024-02-26T03:06:24.495Z,55.00
2024-02-26T03:06:56.573Z,55.67
2024-02-26T03:07:28.589Z,56.00
2024-02-26T03:08:00.894Z,56.00
2024-02-26T03:08:32.783Z,56.00
2024-02-26T03:09:04.663Z,56.67
2024-02-26T03:09:36.509Z,57.00
2024-02-26T03:10:08.706Z,57.67
2024-02-26T03:10:40.610Z,58.00
2024-02-26T03:11:16.427Z,58.00
2024-02-26T03:11:48.403Z,58.00
2024-02-26T03:12:20.409Z,58.33
2024-02-26T03:12:52.284Z,58.00
2024-02-26T03:13:24.128Z,56.67
2024-02-26T03:13:56.272Z,54.67
2024-02-26T03:14:28.186Z,54.00
2024-02-26T03:15:01.844Z,53.33
2024-02-26T03:15:33.848Z,52.00
2024-02-26T03:16:06.953Z,51.67
2024-02-26T03:16:38.912Z,50.33
2024-02-26T03:17:10.789Z,49.00
2024-02-26T03:17:42.928Z,49.00
2024-02-26T03:18:15.047Z,49.33
2024-02-26T03:18:47.190Z,50.33
2024-02-26T03:19:19.225Z,52.67
2024-02-26T03:19:54.447Z,53.67
2024-02-26T03:20:26.392Z,54.00
2024-02-26T03:20:58.265Z,54.00
2024-02-26T03:21:30.508Z,53.67
2024-02-26T03:22:02.417Z,52.67
2024-02-26T03:22:34.335Z,52.00
2024-02-26T03:23:06.199Z,53.00
2024-02-26T03:23:38.415Z,55.33
2024-02-26T03:24:11.646Z,55.33
2024-02-26T03:24:43.677Z,55.00
2024-02-26T03:25:15.602Z,54.00
2024-02-26T03:25:49.024Z,53.00
2024-02-26T03:26:20.880Z,53.00
2024-02-26T03:26:53.361Z,53.00
2024-02-26T03:27:25.425Z,53.67
2024-02-26T03:27:57.280Z,52.67
2024-02-26T03:28:29.174Z,51.67
2024-02-26T03:29:01.952Z,51.00
2024-02-26T03:29:33.798Z,51.00
2024-02-26T03:30:06.389Z,50.67
2024-02-26T03:30:38.454Z,49.67
2024-02-26T03:31:11.657Z,49.00
2024-02-26T03:31:43.485Z,48.33
2024-02-26T03:32:15.375Z,48.00
2024-02-26T03:32:48.466Z,48.00
2024-02-26T03:33:20.603Z,48.00
2024-02-26T03:33:52.738Z,47.33
2024-02-26T03:34:24.928Z,47.00
2024-02-26T03:34:57.250Z,47.00
2024-02-26T03:35:29.197Z,47.00
2024-02-26T03:36:01.123Z,47.00
2024-02-26T03:36:32.969Z,47.00
2024-02-26T03:37:04.835Z,47.00
2024-02-26T03:37:36.752Z,47.00
2024-02-26T03:38:08.608Z,47.00
2024-02-26T03:38:40.509Z,47.00
2024-02-26T03:39:12.555Z,46.00
2024-02-26T03:39:44.505Z,46.33
2024-02-26T03:40:16.369Z,47.00
2024-02-26T03:40:48.242Z,47.00
2024-02-26T03:41:20.085Z,47.00
2024-02-26T03:41:52.022Z,47.00
2024-02-26T03:42:24.175Z,47.00
2024-02-26T03:42:58.528Z,47.00
2024-02-26T03:43:30.401Z,47.00
2024-02-26T03:44:02.671Z,48.00
2024-02-26T03:44:34.630Z,49.67
2024-02-26T03:45:07.380Z,50.00
2024-02-26T03:45:39.242Z,51.00
2024-02-26T03:46:14.982Z,51.00
2024-02-26T03:46:46.883Z,51.00
2024-02-26T03:47:18.714Z,51.00
2024-02-26T03:47:50.744Z,51.00
2024-02-26T03:48:22.876Z,52.00
2024-02-26T03:48:54.992Z,54.33
2024-02-26T03:49:27.016Z,58.67
2024-02-26T03:50:00.328Z,58.00
2024-02-26T03:50:32.211Z,58.00
2024-02-26T03:51:04.842Z,57.00
2024-02-26T03:51:36.744Z,57.00
2024-02-26T03:52:08.691Z,55.67
2024-02-26T03:52:40.514Z,52.67
2024-02-26T03:53:14.835Z,49.00
2024-02-26T03:53:47.023Z,46.33
2024-02-26T03:54:18.938Z,44.67
2024-02-26T03:54:51.047Z,43.33
2024-02-26T03:55:26.162Z,42.00
2024-02-26T03:55:58.047Z,42.00
2024-02-26T03:56:30.187Z,42.00
2024-02-26T03:57:02.161Z,41.67
2024-02-26T03:57:34.033Z,40.33
2024-02-26T03:58:05.932Z,40.00
2024-02-26T03:58:37.836Z,40.00
2024-02-26T03:59:09.705Z,39.67
2024-02-26T03:59:41.592Z,38.33
2024-02-26T04:00:14.084Z,38.00
2024-02-26T04:00:46.084Z,38.00
2024-02-26T04:01:18.008Z,38.00
2024-02-26T04:01:50.643Z,38.00
2024-02-26T04:02:24.077Z,38.00
2024-02-26T04:02:56.587Z,38.00
2024-02-26T04:03:28.567Z,38.00
2024-02-26T04:04:00.935Z,38.00
2024-02-26T04:04:35.770Z,38.33
2024-02-26T04:05:11.444Z,39.00
2024-02-26T04:05:43.355Z,42.00
2024-02-26T04:06:20.779Z,46.00
2024-02-26T04:06:52.843Z,47.00
2024-02-26T04:07:24.734Z,47.00
2024-02-26T04:07:56.604Z,47.00
2024-02-26T04:08:28.504Z,47.00
2024-02-26T04:09:00.377Z,47.00
2024-02-26T04:09:33.013Z,46.00
2024-02-26T04:10:07.058Z,45.00
2024-02-26T04:10:40.098Z,45.00
2024-02-26T04:11:12.130Z,45.33
2024-02-26T04:11:47.260Z,46.00
2024-02-26T04:12:19.916Z,47.00
2024-02-26T04:12:51.791Z,47.00
2024-02-26T04:13:23.853Z,47.00
2024-02-26T04:13:55.724Z,46.67
2024-02-26T04:14:27.598Z,46.00
2024-02-26T04:14:59.552Z,46.00
2024-02-26T04:15:31.495Z,45.00
2024-02-26T04:16:03.873Z,45.00
2024-02-26T04:16:36.893Z,44.67
2024-02-26T04:17:08.741Z,44.00
2024-02-26T04:17:42.240Z,44.00
2024-02-26T04:18:15.379Z,44.00
2024-02-26T04:18:47.496Z,44.00
2024-02-26T04:19:19.716Z,44.00
2024-02-26T04:19:51.711Z,44.00
2024-02-26T04:20:23.549Z,44.33
2024-02-26T04:20:55.544Z,45.00
2024-02-26T04:21:27.443Z,45.00
2024-02-26T04:21:59.336Z,45.00
2024-02-26T04:22:31.178Z,45.67
2024-02-26T04:23:04.329Z,46.67
2024-02-26T04:23:36.200Z,47.00
2024-02-26T04:24:08.132Z,47.00
2024-02-26T04:24:40.036Z,46.33
2024-02-26T04:25:11.878Z,46.00
2024-02-26T04:25:43.708Z,46.00
2024-02-26T04:26:15.616Z,46.00
2024-02-26T04:26:47.610Z,46.00
2024-02-26T04:27:19.636Z,46.67
2024-02-26T04:27:51.579Z,47.00
2024-02-26T04:28:23.503Z,47.00
2024-02-26T04:28:55.395Z,47.00
2024-02-26T04:29:27.262Z,47.00
2024-02-26T04:29:59.224Z,47.67
2024-02-26T04:30:31.149Z,48.00
2024-02-26T04:31:03.089Z,48.67
2024-02-26T04:31:34.901Z,50.00
2024-02-26T04:32:06.891Z,50.00
2024-02-26T04:32:38.783Z,49.67
2024-02-26T04:33:10.794Z,49.67
2024-02-26T04:33:43.429Z,50.00
2024-02-26T04:34:15.578Z,50.00
2024-02-26T04:34:47.656Z,51.00
2024-02-26T04:35:19.651Z,51.00
2024-02-26T04:35:51.545Z,52.00
2024-02-26T04:36:23.543Z,54.00
2024-02-26T04:36:55.449Z,60.33
2024-02-26T04:37:32.158Z,73.67
2024-02-26T04:38:04.243Z,75.00
2024-02-26T04:38:36.348Z,69.33
2024-02-26T04:39:08.585Z,67.00
2024-02-26T04:39:40.807Z,66.00
2024-02-26T04:40:12.845Z,65.00
2024-02-26T04:40:44.758Z,64.33
2024-02-26T04:41:16.854Z,62.00
2024-02-26T04:41:48.702Z,59.00
2024-02-26T04:42:20.667Z,56.33
2024-02-26T04:42:52.563Z,55.33
2024-02-26T04:43:24.412Z,54.33
2024-02-26T04:43:56.313Z,53.33
2024-02-26T04:44:28.201Z,52.67
2024-02-26T04:45:00.103Z,51.67
2024-02-26T04:45:32.041Z,51.00
2024-02-26T04:46:03.873Z,50.67
2024-02-26T04:46:35.860Z,50.00
2024-02-26T04:47:08.835Z,49.00
2024-02-26T04:47:40.874Z,49.00
2024-02-26T04:48:13.049Z,49.00
2024-02-26T04:48:47.056Z,48.33
2024-02-26T04:49:19.014Z,48.00
2024-02-26T04:49:52.099Z,48.00
2024-02-26T04:50:24.215Z,48.00
2024-02-26T04:50:56.123Z,47.33
2024-02-26T04:51:28.120Z,46.67
2024-02-26T04:51:59.992Z,45.67
2024-02-26T04:52:31.908Z,45.00
2024-02-26T04:53:03.719Z,44.67
2024-02-26T04:53:35.655Z,44.00
2024-02-26T04:54:07.557Z,44.00
2024-02-26T04:54:39.885Z,44.00
2024-02-26T04:55:12.152Z,44.00
2024-02-26T04:55:43.975Z,43.33
2024-02-26T04:56:15.814Z,41.67
2024-02-26T04:56:47.712Z,40.00
2024-02-26T04:57:19.733Z,39.00
2024-02-26T04:57:51.693Z,39.00
2024-02-26T04:58:23.532Z,39.00
2024-02-26T04:58:55.395Z,38.67
2024-02-26T04:59:27.314Z,37.67
2024-02-26T04:59:59.265Z,36.67
2024-02-26T05:00:31.250Z,35.00
2024-02-26T05:01:04.642Z,33.00
2024-02-26T05:01:37.953Z,31.67
2024-02-26T05:02:10.976Z,29.67
2024-02-26T05:02:43.069Z,30.33
2024-02-26T05:03:16.803Z,31.33
2024-02-26T05:03:48.822Z,32.33
2024-02-26T05:04:20.848Z,33.67
2024-02-26T05:04:52.833Z,34.33
2024-02-26T05:05:24.695Z,35.00
2024-02-26T05:05:58.654Z,36.00
2024-02-26T05:06:30.939Z,36.67
2024-02-26T05:07:03.007Z,38.00
2024-02-26T05:07:34.967Z,38.00
2024-02-26T05:08:06.926Z,38.00
2024-02-26T05:08:39.795Z,38.00
2024-02-26T05:09:12.057Z,38.00
2024-02-26T05:09:44.699Z,37.33
2024-02-26T05:10:16.538Z,37.00
2024-02-26T05:10:48.414Z,35.33
2024-02-26T05:11:20.334Z,34.00
2024-02-26T05:11:52.401Z,34.00
2024-02-26T05:12:24.399Z,34.00
2024-02-26T05:12:56.263Z,34.00
2024-02-26T05:13:28.099Z,34.00
2024-02-26T05:14:01.179Z,34.00
2024-02-26T05:14:33.018Z,36.00
2024-02-26T05:15:05.192Z,37.00
2024-02-26T05:15:37.663Z,37.00
2024-02-26T05:16:09.589Z,37.00
2024-02-26T05:16:41.493Z,37.00
2024-02-26T05:17:13.322Z,37.67
2024-02-26T05:17:46.635Z,38.00
2024-02-26T05:18:19.156Z,37.00
2024-02-26T05:18:51.171Z,35.33
2024-02-26T05:19:23.331Z,35.00
2024-02-26T05:19:55.399Z,35.67
2024-02-26T05:20:27.271Z,36.00
2024-02-26T05:20:59.179Z,36.00
2024-02-26T05:21:31.235Z,38.33
2024-02-26T05:22:03.079Z,47.33
2024-02-26T05:22:35.044Z,51.67
2024-02-26T05:23:06.902Z,54.33
2024-02-26T05:23:38.840Z,56.00
2024-02-26T05:24:10.986Z,54.33
2024-02-26T05:24:42.867Z,52.67
2024-02-26T05:25:16.320Z,52.00
2024-02-26T05:25:49.165Z,51.00
2024-02-26T05:26:24.184Z,49.67
2024-02-26T05:26:56.761Z,45.00
2024-02-26T05:27:28.711Z,41.00
2024-02-26T05:28:00.811Z,38.33
2024-02-26T05:28:32.771Z,37.33
2024-02-26T05:29:04.617Z,37.00
2024-02-26T05:29:36.499Z,37.00
2024-02-26T05:30:08.778Z,36.67
2024-02-26T05:30:41.189Z,36.00
2024-02-26T05:31:16.327Z,36.00
2024-02-26T05:31:48.195Z,35.67
2024-02-26T05:32:20.541Z,35.00
2024-02-26T05:32:52.589Z,34.00
2024-02-26T05:33:24.666Z,34.00
2024-02-26T05:33:57.420Z,34.67
2024-02-26T05:34:31.581Z,35.00
2024-02-26T05:35:06.697Z,35.33
2024-02-26T05:35:38.896Z,36.00
2024-02-26T05:36:10.854Z,36.00
2024-02-26T05:36:42.727Z,36.00
2024-02-26T05:37:14.551Z,36.00
2024-02-26T05:37:46.398Z,36.00
2024-02-26T05:38:18.481Z,36.00
2024-02-26T05:38:50.773Z,36.00
2024-02-26T05:39:22.714Z,36.00
2024-02-26T05:39:54.630Z,36.00
2024-02-26T05:40:26.506Z,36.00
2024-02-26T05:41:00.046Z,36.00
2024-02-26T05:41:31.916Z,35.67
2024-02-26T05:42:04.234Z,35.00
2024-02-26T05:42:36.149Z,36.00
2024-02-26T05:43:08.016Z,36.00
2024-02-26T05:43:39.901Z,36.00
2024-02-26T05:44:12.842Z,36.00
2024-02-26T05:44:44.741Z,36.00
2024-02-26T05:45:16.611Z,36.67
2024-02-26T05:45:48.505Z,37.00
2024-02-26T05:46:21.163Z,37.00
2024-02-26T05:46:53.009Z,37.00
2024-02-26T05:47:24.886Z,37.00
2024-02-26T05:47:56.890Z,37.00
2024-02-26T05:48:28.999Z,37.67
2024-02-26T05:49:01.120Z,38.00
2024-02-26T05:49:33.877Z,38.00
2024-02-26T05:50:06.362Z,38.00
2024-02-26T05:50:38.250Z,39.00
2024-02-26T05:51:42.696Z,39.67
2024-02-26T05:52:14.589Z,40.00
2024-02-26T05:52:46.636Z,40.00
2024-02-26T05:53:18.504Z,40.00
2024-02-26T05:53:55.535Z,40.00
2024-02-26T05:54:27.775Z,41.67
2024-02-26T05:54:59.605Z,43.00
2024-02-26T05:55:31.542Z,43.00
2024-02-26T05:56:03.413Z,43.00
2024-02-26T05:56:35.239Z,43.33
2024-02-26T05:57:07.146Z,44.00
2024-02-26T05:57:39.426Z,44.00
2024-02-26T05:58:11.313Z,44.00
2024-02-26T05:58:43.271Z,44.00
2024-02-26T05:59:16.550Z,44.00
2024-02-26T05:59:48.926Z,45.00
2024-02-26T06:00:20.888Z,46.67
2024-02-26T06:00:52.814Z,47.00
2024-02-26T06:01:25.736Z,47.00
2024-02-26T06:01:57.594Z,46.67
2024-02-26T06:02:29.464Z,46.00
2024-02-26T06:03:01.382Z,46.00
2024-02-26T06:03:33.822Z,46.00
2024-02-26T06:04:05.912Z,46.00
2024-02-26T06:04:37.818Z,46.33
2024-02-26T06:05:10.213Z,47.67
2024-02-26T06:05:42.402Z,49.67
2024-02-26T06:06:16.479Z,51.33
2024-02-26T06:06:48.758Z,51.33
2024-02-26T06:07:20.713Z,51.00
2024-02-26T06:07:52.970Z,51.67
2024-02-26T06:08:24.806Z,51.00
2024-02-26T06:08:56.685Z,51.00
2024-02-26T06:09:28.647Z,51.00
2024-02-26T06:10:00.628Z,50.67
2024-02-26T06:10:32.504Z,50.67
2024-02-26T06:11:10.605Z,50.00
2024-02-26T06:11:42.648Z,50.00
2024-02-26T06:12:14.697Z,49.00
2024-02-26T06:12:46.644Z,47.67
2024-02-26T06:13:18.447Z,46.33
2024-02-26T06:13:50.310Z,46.00
2024-02-26T06:14:22.184Z,45.33
2024-02-26T06:14:54.131Z,43.33
2024-02-26T06:15:26.063Z,42.00
2024-02-26T06:15:58.181Z,41.00
2024-02-26T06:16:30.109Z,41.00
2024-02-26T06:17:02.022Z,41.33
2024-02-26T06:17:34.759Z,41.33
2024-02-26T06:18:06.744Z,41.00
2024-02-26T06:18:38.847Z,40.67
2024-02-26T06:19:13.734Z,40.67
2024-02-26T06:19:46.171Z,40.00
2024-02-26T06:20:18.172Z,40.00
2024-02-26T06:20:50.242Z,40.00
2024-02-26T06:21:22.171Z,40.00
2024-02-26T06:21:54.055Z,40.67
2024-02-26T06:22:25.925Z,42.33
2024-02-26T06:22:57.731Z,45.33
2024-02-26T06:23:30.050Z,46.00
2024-02-26T06:24:02.638Z,46.00
2024-02-26T06:24:34.544Z,46.00
2024-02-26T06:25:06.565Z,46.00
2024-02-26T06:25:38.496Z,46.00
2024-02-26T06:26:11.471Z,47.00
2024-02-26T06:26:43.431Z,49.00
2024-02-26T06:27:15.334Z,49.00
2024-02-26T06:27:47.207Z,48.33
2024-02-26T06:28:19.451Z,48.00
2024-02-26T06:28:53.597Z,48.00
2024-02-26T06:29:25.578Z,48.00
2024-02-26T06:29:58.151Z,48.33
2024-02-26T06:30:30.150Z,49.00
2024-02-26T06:31:02.226Z,49.00
2024-02-26T06:31:34.092Z,49.00
2024-02-26T06:32:06.064Z,49.33
2024-02-26T06:32:38.681Z,50.00
2024-02-26T06:33:12.126Z,51.00
2024-02-26T06:33:44.389Z,50.67
2024-02-26T06:34:16.499Z,50.00
2024-02-26T06:34:48.574Z,52.67
2024-02-26T06:35:20.711Z,57.67
2024-02-26T06:35:52.609Z,57.67
2024-02-26T06:36:24.764Z,56.67
2024-02-26T06:36:56.632Z,55.00
2024-02-26T06:37:28.519Z,52.00
2024-02-26T06:38:00.464Z,50.00
2024-02-26T06:38:32.446Z,48.33
2024-02-26T06:39:04.458Z,46.00
2024-02-26T06:39:36.352Z,43.00
2024-02-26T06:40:08.672Z,40.33
2024-02-26T06:40:40.984Z,39.00
2024-02-26T06:41:12.859Z,38.00
2024-02-26T06:41:44.817Z,38.33
2024-02-26T06:42:17.701Z,39.00
2024-02-26T06:42:51.450Z,38.67
2024-02-26T06:43:23.367Z,37.67
2024-02-26T06:43:55.678Z,35.67
2024-02-26T06:44:32.921Z,35.00
2024-02-26T06:45:05.884Z,35.67
2024-02-26T06:45:37.867Z,36.00
2024-02-26T06:46:09.777Z,35.33
2024-02-26T06:46:41.598Z,36.00
2024-02-26T06:47:13.619Z,36.67
2024-02-26T06:47:45.704Z,36.33
2024-02-26T06:48:17.813Z,36.00
2024-02-26T06:48:53.133Z,36.00
2024-02-26T06:49:27.355Z,36.33
2024-02-26T06:49:59.652Z,36.00
2024-02-26T06:50:31.642Z,36.00
2024-02-26T06:51:03.783Z,36.00
2024-02-26T06:51:35.723Z,36.00
2024-02-26T06:52:07.801Z,36.00
2024-02-26T06:52:39.707Z,35.00
2024-02-26T06:53:11.567Z,35.00
2024-02-26T06:53:43.424Z,34.33
2024-02-26T06:54:15.334Z,34.00
2024-02-26T06:54:49.298Z,34.00
2024-02-26T06:55:21.169Z,34.00